createdAt,value
2018-02-07T00:00:25.436Z,0
2018-02-07T00:01:35.595Z,0
2018-02-07T00:02:45.733Z,0
2018-02-07T00:03:55.841Z,0
2018-02-07T00:05:05.960Z,0
2018-02-07T00:06:16.369Z,0
2018-02-07T00:07:26.496Z,0
2018-02-07T00:08:36.619Z,0
2018-02-07T00:09:46.496Z,0
2018-02-07T00:10:56.720Z,0
2018-02-07T00:12:06.975Z,0
2018-02-07T00:13:17.209Z,0
2018-02-07T00:14:27.391Z,0
2018-02-07T00:15:37.531Z,0
2018-02-07T00:16:47.682Z,0
2018-02-07T00:17:57.801Z,0
2018-02-07T00:19:07.941Z,0
2018-02-07T00:20:18.057Z,0
2018-02-07T00:21:28.199Z,0
2018-02-07T00:22:38.321Z,0
2018-02-07T00:23:48.446Z,0
2018-02-07T00:24:58.318Z,0
2018-02-07T00:26:07.931Z,0
2018-02-07T00:27:18.073Z,0
2018-02-07T00:28:28.177Z,0
2018-02-07T00:29:38.396Z,0
2018-02-07T00:30:48.553Z,0
2018-02-07T00:31:58.530Z,0
2018-02-07T00:33:08.645Z,0
2018-02-07T00:34:18.760Z,0
2018-02-07T00:35:28.908Z,0
2018-02-07T00:36:39.058Z,0
2018-02-07T00:37:49.177Z,0
2018-02-07T00:38:59.053Z,0
2018-02-07T00:40:09.303Z,0
2018-02-07T00:41:19.427Z,0
2018-02-07T00:42:29.551Z,0
2018-02-07T00:43:39.406Z,0
2018-02-07T00:44:50.542Z,0
2018-02-07T00:46:00.404Z,0
2018-02-07T00:47:10.664Z,0
2018-02-07T00:48:20.843Z,0
2018-02-07T00:49:30.641Z,0
2018-02-07T00:50:40.496Z,0
2018-02-07T00:51:50.645Z,0
2018-02-07T00:53:00.899Z,0
2018-02-07T00:54:12.031Z,0
2018-02-07T00:55:21.878Z,0
2018-02-07T00:56:32.029Z,0
2018-02-07T00:57:42.177Z,0
2018-02-07T00:58:52.303Z,0
2018-02-07T01:00:02.474Z,0
2018-02-07T01:01:13.594Z,0
2018-02-07T01:02:23.717Z,0
2018-02-07T01:03:33.498Z,0
2018-02-07T01:04:43.626Z,0
2018-02-07T01:05:53.779Z,0
2018-02-07T01:07:03.929Z,0
2018-02-07T01:08:15.045Z,0
2018-02-07T01:09:25.160Z,0
2018-02-07T01:10:35.284Z,0
2018-02-07T01:11:45.452Z,0
2018-02-07T01:12:55.559Z,0
2018-02-07T01:14:05.746Z,0
2018-02-07T01:15:15.920Z,0
2018-02-07T01:16:25.823Z,0
2018-02-07T01:17:35.934Z,0
2018-02-07T01:18:45.834Z,0
2018-02-07T01:19:55.946Z,0
2018-02-07T01:21:06.104Z,0
2018-02-07T01:22:16.287Z,0
2018-02-07T01:23:26.520Z,0
2018-02-07T01:24:36.421Z,0
2018-02-07T01:25:46.583Z,0
2018-02-07T01:26:56.702Z,0
2018-02-07T01:28:06.548Z,0
2018-02-07T01:29:16.756Z,0
2018-02-07T01:30:27.033Z,0
2018-02-07T01:31:37.168Z,0
2018-02-07T01:32:47.375Z,0
2018-02-07T01:33:57.531Z,0
2018-02-07T01:35:07.662Z,0
2018-02-07T01:36:17.777Z,0
2018-02-07T01:37:27.881Z,0
2018-02-07T01:38:37.628Z,0
2018-02-07T01:39:47.759Z,0
2018-02-07T01:40:57.915Z,0
2018-02-07T01:42:08.113Z,0
2018-02-07T01:43:18.297Z,0
2018-02-07T01:44:28.415Z,0
2018-02-07T01:45:38.529Z,0
2018-02-07T01:46:48.646Z,0
2018-02-07T01:47:58.244Z,0
2018-02-07T01:49:08.396Z,0
2018-02-07T01:50:18.280Z,0
2018-02-07T01:51:28.418Z,0
2018-02-07T01:52:38.586Z,0
2018-02-07T01:53:49.687Z,0
2018-02-07T01:54:59.807Z,0
2018-02-07T01:56:09.937Z,0
2018-02-07T01:57:20.075Z,0
2018-02-07T01:58:29.973Z,0
2018-02-07T01:59:39.829Z,0
2018-02-07T02:00:49.937Z,0
2018-02-07T02:01:59.686Z,0
2018-02-07T02:03:09.825Z,0
2018-02-07T02:04:19.951Z,0
2018-02-07T02:05:30.102Z,0
2018-02-07T02:06:41.326Z,0
2018-02-07T02:07:51.436Z,0
2018-02-07T02:09:01.577Z,0
2018-02-07T02:10:11.729Z,0
2018-02-07T02:11:21.832Z,0
2018-02-07T02:12:31.992Z,0
2018-02-07T02:13:42.115Z,0
2018-02-07T02:14:52.293Z,0
2018-02-07T02:16:02.410Z,0
2018-02-07T02:17:12.534Z,0
2018-02-07T02:18:22.659Z,0
2018-02-07T02:19:32.608Z,0
2018-02-07T02:20:42.711Z,0
2018-02-07T02:21:52.849Z,0
2018-02-07T02:23:03.227Z,0
2018-02-07T02:24:12.982Z,0
2018-02-07T02:25:22.832Z,0
2018-02-07T02:26:32.929Z,0
2018-02-07T02:27:42.811Z,0
2018-02-07T02:28:52.697Z,0
2018-02-07T02:30:03.777Z,0
2018-02-07T02:31:13.975Z,0
2018-02-07T02:32:23.978Z,0
2018-02-07T02:33:34.129Z,0
2018-02-07T02:34:44.239Z,0
2018-02-07T02:35:54.349Z,0
2018-02-07T02:37:04.457Z,0
2018-02-07T02:38:14.593Z,0
2018-02-07T02:39:24.697Z,0
2018-02-07T02:40:34.818Z,0
2018-02-07T02:41:44.963Z,0
2018-02-07T02:42:54.939Z,0
2018-02-07T02:44:05.106Z,0
2018-02-07T02:45:15.385Z,0
2018-02-07T02:46:25.271Z,0
2018-02-07T02:47:34.825Z,0
2018-02-07T02:48:45.062Z,0
2018-02-07T02:49:55.304Z,0
2018-02-07T02:51:05.483Z,0
2018-02-07T02:52:15.626Z,0
2018-02-07T02:53:25.823Z,0
2018-02-07T02:54:36.046Z,0
2018-02-07T02:55:46.211Z,0
2018-02-07T02:56:55.802Z,0
2018-02-07T02:58:05.721Z,0
2018-02-07T02:59:15.573Z,0
2018-02-07T03:00:25.731Z,0
2018-02-07T03:01:35.849Z,0
2018-02-07T03:02:46.115Z,0
2018-02-07T03:03:56.248Z,0
2018-02-07T03:05:06.369Z,0
2018-02-07T03:06:16.298Z,0
2018-02-07T03:07:26.275Z,0
2018-02-07T03:08:36.136Z,0
2018-02-07T03:09:46.247Z,0
2018-02-07T03:10:56.373Z,0
2018-02-07T03:12:06.511Z,0
2018-02-07T03:13:16.466Z,0
2018-02-07T03:14:26.570Z,0
2018-02-07T03:15:36.428Z,0
2018-02-07T03:16:45.920Z,0
2018-02-07T03:17:56.092Z,0
2018-02-07T03:19:06.206Z,0
2018-02-07T03:20:16.383Z,0
2018-02-07T03:21:27.460Z,0
2018-02-07T03:22:37.334Z,0
2018-02-07T03:23:47.422Z,0
2018-02-07T03:24:57.523Z,0
2018-02-07T03:26:07.706Z,0
2018-02-07T03:27:17.913Z,0
2018-02-07T03:28:28.082Z,0
2018-02-07T03:29:38.202Z,0
2018-02-07T03:30:48.326Z,0
2018-02-07T03:31:58.456Z,0
2018-02-07T03:33:08.346Z,0
2018-02-07T03:34:18.450Z,0
2018-02-07T03:35:28.582Z,0
2018-02-07T03:36:38.695Z,0
2018-02-07T03:37:48.832Z,0
2018-02-07T03:38:58.948Z,0
2018-02-07T03:40:09.073Z,0
2018-02-07T03:41:19.327Z,0
2018-02-07T03:42:30.420Z,0
2018-02-07T03:43:40.528Z,0
2018-02-07T03:44:50.724Z,0
2018-02-07T03:46:00.513Z,0
2018-02-07T03:47:10.676Z,0
2018-02-07T03:48:20.573Z,0
2018-02-07T03:49:30.682Z,0
2018-02-07T03:50:40.620Z,0
2018-02-07T03:51:50.739Z,0
2018-02-07T03:53:00.849Z,0
2018-02-07T03:54:10.704Z,0
2018-02-07T03:55:20.859Z,0
2018-02-07T03:56:31.095Z,0
2018-02-07T03:57:41.243Z,0
2018-02-07T03:58:51.374Z,0
2018-02-07T04:00:01.300Z,0
2018-02-07T04:01:12.409Z,0
2018-02-07T04:02:22.513Z,0
2018-02-07T04:03:32.673Z,0
2018-02-07T04:04:42.830Z,0
2018-02-07T04:05:52.918Z,0
2018-02-07T04:07:03.049Z,0
2018-02-07T04:08:13.328Z,0
2018-02-07T04:09:23.522Z,0
2018-02-07T04:10:33.257Z,0
2018-02-07T04:11:43.477Z,0
2018-02-07T04:12:53.617Z,0
2018-02-07T04:14:03.759Z,0
2018-02-07T04:15:13.867Z,0
2018-02-07T04:16:23.977Z,0
2018-02-07T04:17:34.090Z,0
2018-02-07T04:18:44.249Z,0
2018-02-07T04:19:54.385Z,0
2018-02-07T04:21:04.480Z,0
2018-02-07T04:22:14.605Z,0
2018-02-07T04:23:24.351Z,0
2018-02-07T04:24:34.201Z,0
2018-02-07T04:25:44.304Z,0
2018-02-07T04:26:55.450Z,0
2018-02-07T04:28:05.710Z,0
2018-02-07T04:29:15.868Z,0
2018-02-07T04:30:26.215Z,0
2018-02-07T04:31:36.326Z,0
2018-02-07T04:32:46.422Z,0
2018-02-07T04:33:56.650Z,0
2018-02-07T04:35:06.792Z,0
2018-02-07T04:36:17.055Z,0
2018-02-07T04:37:27.155Z,0
2018-02-07T04:38:37.289Z,0
2018-02-07T04:39:47.514Z,0
2018-02-07T04:40:57.626Z,0
2018-02-07T04:42:07.759Z,0
2018-02-07T04:43:17.883Z,0
2018-02-07T04:44:28.042Z,0
2018-02-07T04:45:38.153Z,0
2018-02-07T04:46:48.126Z,0
2018-02-07T04:47:58.272Z,0
2018-02-07T04:49:08.188Z,0
2018-02-07T04:50:18.338Z,0
2018-02-07T04:51:28.479Z,0
2018-02-07T04:52:38.636Z,0
2018-02-07T04:53:48.764Z,0
2018-02-07T04:54:58.666Z,0
2018-02-07T04:56:08.835Z,0
2018-02-07T04:57:19.925Z,0
2018-02-07T04:58:30.070Z,0
2018-02-07T04:59:40.171Z,0
2018-02-07T05:00:50.311Z,0
2018-02-07T05:02:00.431Z,0
2018-02-07T05:03:10.583Z,0
2018-02-07T05:04:20.715Z,0
2018-02-07T05:05:30.837Z,0
2018-02-07T05:06:40.688Z,0
2018-02-07T05:07:50.790Z,0
2018-02-07T05:09:00.920Z,0
2018-02-07T05:10:11.060Z,0
2018-02-07T05:11:21.436Z,0
2018-02-07T05:12:32.539Z,0
2018-02-07T05:13:42.718Z,0
2018-02-07T05:14:52.586Z,0
2018-02-07T05:16:02.698Z,0
2018-02-07T05:17:12.809Z,0
2018-02-07T05:18:22.954Z,0
2018-02-07T05:19:33.068Z,0
2018-02-07T05:20:43.217Z,0
2018-02-07T05:21:53.379Z,0
2018-02-07T05:23:03.654Z,0
2018-02-07T05:24:13.843Z,0
2018-02-07T05:25:23.974Z,0
2018-02-07T05:26:34.202Z,0
2018-02-07T05:27:44.428Z,0
2018-02-07T05:28:54.610Z,0
2018-02-07T05:30:04.821Z,0
2018-02-07T05:31:14.928Z,0
2018-02-07T05:32:25.026Z,0
2018-02-07T05:33:35.251Z,0
2018-02-07T05:34:45.380Z,0
2018-02-07T05:35:55.499Z,0
2018-02-07T05:37:05.709Z,0
2018-02-07T05:38:15.860Z,0
2018-02-07T05:39:26.168Z,0
2018-02-07T05:40:36.373Z,0
2018-02-07T05:41:46.132Z,0
2018-02-07T05:42:55.994Z,0
2018-02-07T05:44:06.128Z,0
2018-02-07T05:45:16.345Z,0
2018-02-07T05:46:26.528Z,0
2018-02-07T05:47:36.680Z,0
2018-02-07T05:48:46.895Z,0
2018-02-07T05:49:57.010Z,0
2018-02-07T05:51:07.130Z,0
2018-02-07T05:52:16.991Z,0
2018-02-07T05:53:27.116Z,0
2018-02-07T05:54:37.219Z,0
2018-02-07T05:55:47.352Z,0
2018-02-07T05:56:56.954Z,0
2018-02-07T05:58:07.049Z,0
2018-02-07T05:59:17.172Z,0
2018-02-07T06:00:27.294Z,0
2018-02-07T06:01:37.432Z,0
2018-02-07T06:02:47.548Z,0
2018-02-07T06:03:57.664Z,0
2018-02-07T06:05:08.740Z,0
2018-02-07T06:06:18.918Z,0
2018-02-07T06:07:29.099Z,0
2018-02-07T06:08:38.983Z,0
2018-02-07T06:09:49.094Z,0
2018-02-07T06:10:59.212Z,0
2018-02-07T06:12:09.353Z,0
2018-02-07T06:13:19.222Z,0
2018-02-07T06:14:29.359Z,0
2018-02-07T06:15:39.642Z,0
2018-02-07T06:16:50.605Z,0
2018-02-07T06:18:00.715Z,0
2018-02-07T06:19:10.833Z,0
2018-02-07T06:20:20.999Z,0
2018-02-07T06:21:30.862Z,0
2018-02-07T06:22:40.963Z,0
2018-02-07T06:23:50.906Z,0
2018-02-07T06:25:01.036Z,0
2018-02-07T06:26:11.150Z,0
2018-02-07T06:27:21.313Z,0
2018-02-07T06:28:31.450Z,0
2018-02-07T06:29:41.560Z,0
2018-02-07T06:30:51.690Z,0
2018-02-07T06:32:02.791Z,0
2018-02-07T06:33:12.991Z,0
2018-02-07T06:34:23.152Z,0
2018-02-07T06:35:33.287Z,0
2018-02-07T06:36:43.382Z,0
2018-02-07T06:37:53.505Z,0
2018-02-07T06:39:03.639Z,0
2018-02-07T06:40:13.489Z,0
2018-02-07T06:41:23.628Z,0
2018-02-07T06:42:33.899Z,0
2018-02-07T06:43:44.044Z,5
2018-02-07T06:44:54.224Z,5
2018-02-07T06:46:04.441Z,5
2018-02-07T06:47:14.593Z,5
2018-02-07T06:48:24.777Z,5
2018-02-07T06:49:34.924Z,5
2018-02-07T06:50:44.546Z,5
2018-02-07T06:51:54.397Z,5
2018-02-07T06:53:04.535Z,10
2018-02-07T06:54:14.383Z,10
2018-02-07T06:55:24.513Z,10
2018-02-07T06:56:34.367Z,10
2018-02-07T06:57:44.248Z,15
2018-02-07T06:58:54.406Z,15
2018-02-07T07:00:04.534Z,15
2018-02-07T07:01:15.632Z,15
2018-02-07T07:02:25.743Z,20
2018-02-07T07:03:35.908Z,20
2018-02-07T07:04:46.148Z,20
2018-02-07T07:05:56.345Z,20
2018-02-07T07:07:06.473Z,20
2018-02-07T07:08:16.678Z,20
2018-02-07T07:09:26.892Z,25
2018-02-07T07:10:37.143Z,25
2018-02-07T07:11:47.467Z,25
2018-02-07T07:12:57.651Z,25
2018-02-07T07:14:07.943Z,25
2018-02-07T07:15:18.061Z,30
2018-02-07T07:16:29.244Z,30
2018-02-07T07:17:39.067Z,30
2018-02-07T07:18:49.221Z,35
2018-02-07T07:19:59.346Z,35
2018-02-07T07:21:09.451Z,35
2018-02-07T07:22:19.567Z,35
2018-02-07T07:23:30.665Z,40
2018-02-07T07:24:40.872Z,40
2018-02-07T07:25:51.204Z,40
2018-02-07T07:27:01.317Z,45
2018-02-07T07:28:11.173Z,45
2018-02-07T07:29:21.297Z,45
2018-02-07T07:30:31.460Z,45
2018-02-07T07:31:41.329Z,50
2018-02-07T07:32:51.484Z,50
2018-02-07T07:34:01.703Z,50
2018-02-07T07:35:11.839Z,50
2018-02-07T07:36:21.953Z,50
2018-02-07T07:37:31.834Z,50
2018-02-07T07:38:42.001Z,55
2018-02-07T07:39:52.163Z,55
2018-02-07T07:41:02.266Z,55
2018-02-07T07:42:13.112Z,55
2018-02-07T07:43:23.412Z,60
2018-02-07T07:44:33.747Z,60
2018-02-07T07:45:43.951Z,60
2018-02-07T07:46:53.809Z,65
2018-02-07T07:48:03.929Z,65
2018-02-07T07:49:14.177Z,65
2018-02-07T07:50:24.335Z,70
2018-02-07T07:51:34.230Z,70
2018-02-07T07:52:44.340Z,75
2018-02-07T07:53:54.502Z,80
2018-02-07T07:55:04.647Z,85
2018-02-07T07:56:14.877Z,85
2018-02-07T07:57:25.019Z,90
2018-02-07T07:58:35.309Z,90
2018-02-07T07:59:45.450Z,90
2018-02-07T08:00:55.737Z,90
2018-02-07T08:02:05.864Z,90
2018-02-07T08:03:15.996Z,90
2018-02-07T08:04:26.155Z,90
2018-02-07T08:05:36.274Z,90
2018-02-07T08:06:46.427Z,90
2018-02-07T08:07:56.565Z,90
2018-02-07T08:09:06.786Z,90
2018-02-07T08:10:16.929Z,90
2018-02-07T08:11:27.184Z,90
2018-02-07T08:12:37.358Z,90
2018-02-07T08:13:47.523Z,95
2018-02-07T08:14:57.646Z,95
2018-02-07T08:16:07.787Z,100
2018-02-07T08:17:17.652Z,105
2018-02-07T08:18:27.778Z,105
2018-02-07T08:19:37.902Z,105
2018-02-07T08:20:48.091Z,105
2018-02-07T08:21:58.244Z,105
2018-02-07T08:23:08.425Z,110
2018-02-07T08:24:18.534Z,105
2018-02-07T08:25:28.652Z,110
2018-02-07T08:26:38.775Z,110
2018-02-07T08:27:48.893Z,115
2018-02-07T08:28:59.105Z,115
2018-02-07T08:30:09.339Z,120
2018-02-07T08:31:19.523Z,125
2018-02-07T08:32:29.825Z,125
2018-02-07T08:33:39.727Z,130
2018-02-07T08:34:49.828Z,130
2018-02-07T08:35:59.979Z,130
2018-02-07T08:37:10.198Z,135
2018-02-07T08:38:20.446Z,135
2018-02-07T08:39:30.615Z,140
2018-02-07T08:40:40.789Z,145
2018-02-07T08:41:51.018Z,145
2018-02-07T08:43:01.270Z,150
2018-02-07T08:44:11.440Z,150
2018-02-07T08:45:21.639Z,150
2018-02-07T08:46:31.421Z,155
2018-02-07T08:47:41.317Z,155
2018-02-07T08:48:51.437Z,160
2018-02-07T08:50:01.610Z,160
2018-02-07T08:51:11.725Z,165
2018-02-07T08:52:21.840Z,170
2018-02-07T08:53:31.976Z,175
2018-02-07T08:54:42.096Z,185
2018-02-07T08:55:52.227Z,190
2018-02-07T08:57:02.453Z,200
2018-02-07T08:58:12.717Z,200
2018-02-07T08:59:22.952Z,200
2018-02-07T09:00:33.140Z,205
2018-02-07T09:01:43.364Z,205
2018-02-07T09:02:53.507Z,210
2018-02-07T09:04:03.649Z,215
2018-02-07T09:05:14.743Z,215
2018-02-07T09:06:24.627Z,220
2018-02-07T09:07:34.757Z,215
2018-02-07T09:08:44.895Z,215
2018-02-07T09:09:55.045Z,215
2018-02-07T09:11:04.840Z,215
2018-02-07T09:12:14.984Z,225
2018-02-07T09:13:24.748Z,235
2018-02-07T09:14:34.907Z,240
2018-02-07T09:15:45.073Z,245
2018-02-07T09:16:55.237Z,245
2018-02-07T09:18:05.122Z,245
2018-02-07T09:19:15.223Z,240
2018-02-07T09:20:25.358Z,230
2018-02-07T09:21:35.596Z,225
2018-02-07T09:22:45.716Z,220
2018-02-07T09:23:55.660Z,215
2018-02-07T09:25:05.902Z,215
2018-02-07T09:26:15.768Z,215
2018-02-07T09:27:26.616Z,220
2018-02-07T09:28:36.747Z,220
2018-02-07T09:29:46.865Z,225
2018-02-07T09:30:57.107Z,230
2018-02-07T09:32:07.225Z,230
2018-02-07T09:33:17.474Z,225
2018-02-07T09:34:27.719Z,225
2018-02-07T09:35:37.627Z,220
2018-02-07T09:36:47.762Z,220
2018-02-07T09:37:57.982Z,220
2018-02-07T09:39:08.244Z,220
2018-02-07T09:40:18.362Z,225
2018-02-07T09:41:28.496Z,230
2018-02-07T09:42:38.642Z,230
2018-02-07T09:43:49.021Z,230
2018-02-07T09:44:59.138Z,230
2018-02-07T09:46:09.334Z,230
2018-02-07T09:47:19.291Z,235
2018-02-07T09:48:29.174Z,235
2018-02-07T09:49:39.274Z,235
2018-02-07T09:50:49.411Z,230
2018-02-07T09:51:59.620Z,230
2018-02-07T09:53:09.753Z,230
2018-02-07T09:54:19.868Z,230
2018-02-07T09:55:29.790Z,235
2018-02-07T09:56:39.993Z,235
2018-02-07T09:57:50.262Z,230
2018-02-07T09:59:00.439Z,225
2018-02-07T10:00:10.634Z,220
2018-02-07T10:01:20.500Z,220
2018-02-07T10:02:30.346Z,220
2018-02-07T10:03:40.477Z,220
2018-02-07T10:04:50.391Z,225
2018-02-07T10:06:00.763Z,235
2018-02-07T10:07:10.958Z,240
2018-02-07T10:08:21.075Z,240
2018-02-07T10:09:31.219Z,245
2018-02-07T10:10:41.390Z,245
2018-02-07T10:11:51.247Z,245
2018-02-07T10:13:01.470Z,245
2018-02-07T10:14:11.633Z,245
2018-02-07T10:15:21.742Z,250
2018-02-07T10:16:31.863Z,250
2018-02-07T10:17:42.008Z,250
2018-02-07T10:18:51.887Z,255
2018-02-07T10:20:02.007Z,255
2018-02-07T10:21:12.139Z,255
2018-02-07T10:22:22.276Z,255
2018-02-07T10:23:32.386Z,255
2018-02-07T10:24:42.505Z,260
2018-02-07T10:25:52.622Z,260
2018-02-07T10:27:02.400Z,260
2018-02-07T10:28:12.537Z,260
2018-02-07T10:29:22.812Z,260
2018-02-07T10:30:33.013Z,260
2018-02-07T10:31:43.155Z,260
2018-02-07T10:32:53.110Z,255
2018-02-07T10:34:03.231Z,250
2018-02-07T10:35:13.362Z,245
2018-02-07T10:36:23.615Z,240
2018-02-07T10:37:33.888Z,235
2018-02-07T10:38:44.113Z,235
2018-02-07T10:39:54.296Z,230
2018-02-07T10:41:04.517Z,230
2018-02-07T10:42:14.282Z,230
2018-02-07T10:43:24.415Z,225
2018-02-07T10:44:34.675Z,225
2018-02-07T10:45:44.851Z,220
2018-02-07T10:46:55.108Z,220
2018-02-07T10:48:05.281Z,220
2018-02-07T10:49:15.463Z,220
2018-02-07T10:50:26.566Z,220
2018-02-07T10:51:36.679Z,220
2018-02-07T10:52:46.824Z,220
2018-02-07T10:53:56.607Z,220
2018-02-07T10:55:07.442Z,220
2018-02-07T10:56:17.417Z,215
2018-02-07T10:57:27.621Z,220
2018-02-07T10:58:37.564Z,220
2018-02-07T10:59:47.697Z,225
2018-02-07T11:00:57.816Z,230
2018-02-07T11:02:07.676Z,230
2018-02-07T11:03:17.791Z,230
2018-02-07T11:04:28.043Z,230
2018-02-07T11:05:38.285Z,225
2018-02-07T11:06:48.516Z,225
2018-02-07T11:07:58.664Z,225
2018-02-07T11:09:08.835Z,225
2018-02-07T11:10:19.043Z,225
2018-02-07T11:11:29.346Z,225
2018-02-07T11:12:39.486Z,225
2018-02-07T11:13:49.770Z,230
2018-02-07T11:14:59.918Z,230
2018-02-07T11:16:10.198Z,230
2018-02-07T11:17:20.431Z,225
2018-02-07T11:18:30.169Z,225
2018-02-07T11:19:40.329Z,220
2018-02-07T11:20:50.497Z,220
2018-02-07T11:22:00.037Z,220
2018-02-07T11:23:10.161Z,225
2018-02-07T11:24:19.679Z,225
2018-02-07T11:25:29.913Z,225
2018-02-07T11:26:39.875Z,230
2018-02-07T11:27:49.818Z,235
2018-02-07T11:29:00.023Z,240
2018-02-07T11:30:09.910Z,240
2018-02-07T11:31:19.794Z,240
2018-02-07T11:32:29.985Z,245
2018-02-07T11:33:41.364Z,255
2018-02-07T11:34:51.221Z,270
2018-02-07T11:36:00.931Z,280
2018-02-07T11:37:10.306Z,290
2018-02-07T11:38:20.432Z,295
2018-02-07T11:39:30.303Z,300
2018-02-07T11:40:40.538Z,310
2018-02-07T11:41:50.733Z,325
2018-02-07T11:43:00.620Z,350
2018-02-07T11:44:10.762Z,375
2018-02-07T11:45:20.885Z,390
2018-02-07T11:46:31.011Z,380
2018-02-07T11:47:41.345Z,375
2018-02-07T11:48:51.542Z,385
2018-02-07T11:50:01.491Z,395
2018-02-07T11:51:11.614Z,390
2018-02-07T11:52:21.740Z,365
2018-02-07T11:53:31.871Z,355
2018-02-07T11:54:42.031Z,375
2018-02-07T11:55:51.645Z,380
2018-02-07T11:57:01.764Z,355
2018-02-07T11:58:11.907Z,320
2018-02-07T11:59:22.034Z,325
2018-02-07T12:00:32.157Z,350
2018-02-07T12:01:42.156Z,370
2018-02-07T12:02:52.332Z,390
2018-02-07T12:04:02.309Z,430
2018-02-07T12:05:12.420Z,465
2018-02-07T12:06:22.731Z,495
2018-02-07T12:07:32.605Z,510
2018-02-07T12:08:42.730Z,530
2018-02-07T12:09:52.859Z,560
2018-02-07T12:11:03.100Z,620
2018-02-07T12:12:13.234Z,640
2018-02-07T12:13:23.145Z,630
2018-02-07T12:14:33.029Z,640
2018-02-07T12:15:43.225Z,755
2018-02-07T12:16:53.499Z,695
2018-02-07T12:18:03.670Z,655
2018-02-07T12:19:13.808Z,645
2018-02-07T12:20:24.024Z,635
2018-02-07T12:21:33.886Z,655
2018-02-07T12:22:44.140Z,840
2018-02-07T12:23:54.102Z,1005
2018-02-07T12:25:03.971Z,985
2018-02-07T12:26:14.092Z,730
2018-02-07T12:27:24.316Z,715
2018-02-07T12:28:34.461Z,785
2018-02-07T12:29:44.589Z,820
2018-02-07T12:30:54.735Z,970
2018-02-07T12:32:04.912Z,920
2018-02-07T12:33:14.815Z,900
2018-02-07T12:34:24.933Z,975
2018-02-07T12:35:35.145Z,1435
2018-02-07T12:36:45.270Z,1305
2018-02-07T12:37:55.487Z,1255
2018-02-07T12:39:05.660Z,850
2018-02-07T12:40:16.081Z,775
2018-02-07T12:41:25.970Z,785
2018-02-07T12:42:35.896Z,890
2018-02-07T12:43:46.216Z,850
2018-02-07T12:44:56.339Z,930
2018-02-07T12:46:06.677Z,1590
2018-02-07T12:47:16.285Z,1030
2018-02-07T12:48:26.396Z,895
2018-02-07T12:49:36.525Z,800
2018-02-07T12:50:46.657Z,920
2018-02-07T12:51:56.800Z,1235
2018-02-07T12:53:06.930Z,1075
2018-02-07T12:54:17.299Z,955
2018-02-07T12:55:27.463Z,1225
2018-02-07T12:56:37.634Z,1410
2018-02-07T12:57:47.841Z,1330
2018-02-07T12:58:59.023Z,1415
2018-02-07T13:00:09.212Z,1375
2018-02-07T13:01:19.368Z,1380
2018-02-07T13:02:29.531Z,1370
2018-02-07T13:03:39.654Z,1295
2018-02-07T13:04:49.784Z,1215
2018-02-07T13:05:59.917Z,1185
2018-02-07T13:07:10.044Z,1110
2018-02-07T13:08:20.170Z,1165
2018-02-07T13:09:30.298Z,1030
2018-02-07T13:10:40.433Z,1205
2018-02-07T13:11:50.629Z,1215
2018-02-07T13:13:00.780Z,920
2018-02-07T13:14:10.951Z,1095
2018-02-07T13:15:21.194Z,1005
2018-02-07T13:16:31.133Z,540
2018-02-07T13:17:41.023Z,725
2018-02-07T13:18:50.931Z,560
2018-02-07T13:20:01.071Z,545
2018-02-07T13:21:11.042Z,530
2018-02-07T13:22:20.928Z,540
2018-02-07T13:23:31.050Z,615
2018-02-07T13:24:41.173Z,695
2018-02-07T13:25:51.300Z,680
2018-02-07T13:27:01.482Z,775
2018-02-07T13:28:11.626Z,920
2018-02-07T13:29:21.842Z,825
2018-02-07T13:30:32.048Z,975
2018-02-07T13:31:42.430Z,1095
2018-02-07T13:32:52.573Z,1030
2018-02-07T13:34:02.770Z,1005
2018-02-07T13:35:12.930Z,1050
2018-02-07T13:36:23.107Z,1085
2018-02-07T13:37:32.986Z,1050
2018-02-07T13:38:43.194Z,940
2018-02-07T13:39:53.383Z,810
2018-02-07T13:41:03.169Z,660
2018-02-07T13:42:13.327Z,505
2018-02-07T13:43:23.517Z,435
2018-02-07T13:44:33.404Z,405
2018-02-07T13:45:43.544Z,385
2018-02-07T13:46:53.421Z,370
2018-02-07T13:48:03.034Z,360
2018-02-07T13:49:13.181Z,355
2018-02-07T13:50:23.406Z,340
2018-02-07T13:51:33.595Z,330
2018-02-07T13:52:43.800Z,325
2018-02-07T13:53:53.561Z,320
2018-02-07T13:55:04.754Z,315
2018-02-07T13:56:14.945Z,310
2018-02-07T13:57:25.184Z,305
2018-02-07T13:58:36.302Z,305
2018-02-07T13:59:46.428Z,300
2018-02-07T14:00:56.571Z,300
2018-02-07T14:02:06.762Z,290
2018-02-07T14:03:16.877Z,290
2018-02-07T14:04:27.102Z,285
2018-02-07T14:05:37.288Z,280
2018-02-07T14:06:47.483Z,280
2018-02-07T14:07:57.631Z,275
2018-02-07T14:09:07.916Z,270
2018-02-07T14:10:18.069Z,270
2018-02-07T14:11:28.241Z,270
2018-02-07T14:12:38.386Z,265
2018-02-07T14:13:48.500Z,260
2018-02-07T14:14:58.705Z,260
2018-02-07T14:16:08.954Z,255
2018-02-07T14:17:20.095Z,250
2018-02-07T14:18:30.006Z,250
2018-02-07T14:19:39.886Z,245
2018-02-07T14:20:50.049Z,245
2018-02-07T14:22:00.194Z,240
2018-02-07T14:23:10.307Z,240
2018-02-07T14:24:20.465Z,235
2018-02-07T14:25:30.644Z,235
2018-02-07T14:26:40.902Z,230
2018-02-07T14:27:51.177Z,230
2018-02-07T14:29:01.311Z,225
2018-02-07T14:30:11.479Z,225
2018-02-07T14:31:21.351Z,225
2018-02-07T14:32:31.501Z,220
2018-02-07T14:33:41.632Z,220
2018-02-07T14:34:51.770Z,215
2018-02-07T14:36:02.019Z,210
2018-02-07T14:37:12.247Z,210
2018-02-07T14:38:22.426Z,205
2018-02-07T14:39:32.542Z,205
2018-02-07T14:40:42.674Z,205
2018-02-07T14:41:52.556Z,200
2018-02-07T14:43:02.674Z,200
2018-02-07T14:44:12.540Z,195
2018-02-07T14:45:22.677Z,195
2018-02-07T14:46:32.811Z,195
2018-02-07T14:47:42.961Z,240
2018-02-07T14:48:53.118Z,335
2018-02-07T14:50:03.286Z,370
2018-02-07T14:51:13.491Z,370
2018-02-07T14:52:23.730Z,360
2018-02-07T14:53:33.971Z,355
2018-02-07T14:54:44.159Z,345
2018-02-07T14:55:54.470Z,355
2018-02-07T14:57:04.358Z,345
2018-02-07T14:58:14.515Z,320
2018-02-07T14:59:24.665Z,265
2018-02-07T15:00:34.868Z,185
2018-02-07T15:01:45.007Z,165
2018-02-07T15:02:55.184Z,160
2018-02-07T15:04:05.354Z,155
2018-02-07T15:05:15.518Z,150
2018-02-07T15:06:25.673Z,145
2018-02-07T15:07:35.819Z,140
2018-02-07T15:08:45.928Z,135
2018-02-07T15:09:56.084Z,130
2018-02-07T15:11:06.233Z,130
2018-02-07T15:12:16.376Z,130
2018-02-07T15:13:25.900Z,125
2018-02-07T15:14:35.773Z,120
2018-02-07T15:15:45.645Z,120
2018-02-07T15:16:55.847Z,115
2018-02-07T15:18:05.736Z,110
2018-02-07T15:19:15.671Z,110
2018-02-07T15:20:25.824Z,105
2018-02-07T15:21:35.703Z,100
2018-02-07T15:22:45.827Z,100
2018-02-07T15:23:55.799Z,95
2018-02-07T15:25:06.008Z,95
2018-02-07T15:26:16.333Z,90
2018-02-07T15:27:26.583Z,85
2018-02-07T15:28:36.769Z,85
2018-02-07T15:29:47.069Z,80
2018-02-07T15:30:57.207Z,80
2018-02-07T15:32:07.355Z,75
2018-02-07T15:33:17.581Z,70
2018-02-07T15:34:27.827Z,70
2018-02-07T15:35:37.966Z,65
2018-02-07T15:36:48.094Z,65
2018-02-07T15:37:58.236Z,60
2018-02-07T15:39:08.107Z,60
2018-02-07T15:40:18.312Z,60
2018-02-07T15:41:28.426Z,60
2018-02-07T15:42:38.584Z,55
2018-02-07T15:43:48.741Z,55
2018-02-07T15:44:58.983Z,50
2018-02-07T15:46:09.120Z,50
2018-02-07T15:47:19.318Z,45
2018-02-07T15:48:29.349Z,45
2018-02-07T15:49:39.286Z,40
2018-02-07T15:50:49.214Z,40
2018-02-07T15:51:59.335Z,40
2018-02-07T15:53:09.453Z,35
2018-02-07T15:54:19.394Z,35
2018-02-07T15:55:29.563Z,30
2018-02-07T15:56:39.706Z,30
2018-02-07T15:57:49.836Z,25
2018-02-07T15:59:00.005Z,25
2018-02-07T16:00:10.155Z,20
2018-02-07T16:01:20.483Z,20
2018-02-07T16:02:30.630Z,20
2018-02-07T16:03:40.822Z,15
2018-02-07T16:04:50.938Z,15
2018-02-07T16:06:01.089Z,15
2018-02-07T16:07:11.042Z,15
2018-02-07T16:08:21.202Z,10
2018-02-07T16:09:31.336Z,10
2018-02-07T16:10:41.556Z,10
2018-02-07T16:11:51.733Z,10
2018-02-07T16:13:01.886Z,10
2018-02-07T16:14:12.027Z,5
2018-02-07T16:15:22.185Z,5
2018-02-07T16:16:32.327Z,5
2018-02-07T16:17:42.307Z,5
2018-02-07T16:18:52.414Z,5
2018-02-07T16:20:02.682Z,5
2018-02-07T16:21:12.879Z,5
2018-02-07T16:22:23.165Z,0
2018-02-07T16:23:33.309Z,0
2018-02-07T16:24:43.100Z,0
2018-02-07T16:25:53.315Z,0
2018-02-07T16:27:03.285Z,0
2018-02-07T16:28:13.425Z,0
2018-02-07T16:29:23.568Z,0
2018-02-07T16:30:33.725Z,0
2018-02-07T16:31:43.894Z,0
2018-02-07T16:32:54.016Z,0
2018-02-07T16:34:04.243Z,0
2018-02-07T16:35:14.574Z,0
2018-02-07T16:36:24.502Z,0
2018-02-07T16:37:34.639Z,0
2018-02-07T16:38:44.770Z,0